createdAt,value
2023-05-25T00:02:06.521Z,23.83
2023-05-25T00:04:35.606Z,24.10
2023-05-25T00:07:04.079Z,26.40
2023-05-25T00:09:32.723Z,16.50
2023-05-25T00:12:01.057Z,23.37
2023-05-25T00:14:31.249Z,19.27
2023-05-25T00:17:03.687Z,28.47
2023-05-25T00:19:34.248Z,20.70
2023-05-25T00:22:03.403Z,26.00
2023-05-25T00:24:33.039Z,18.10
2023-05-25T00:27:03.671Z,21.83
2023-05-25T00:29:33.358Z,26.93
2023-05-25T00:32:04.413Z,26.43
2023-05-25T00:34:32.786Z,25.13
2023-05-25T00:37:01.006Z,28.50
2023-05-25T00:39:29.470Z,25.03
2023-05-25T00:41:58.844Z,18.07
2023-05-25T00:44:26.986Z,25.83
2023-05-25T00:46:56.717Z,18.93
2023-05-25T00:49:27.644Z,24.53
2023-05-25T00:51:56.446Z,26.87
2023-05-25T00:54:24.813Z,23.37
2023-05-25T00:56:57.325Z,23.73
2023-05-25T00:59:35.933Z,14.33
2023-05-25T01:02:09.948Z,24.90
2023-05-25T01:04:42.597Z,23.03
2023-05-25T01:07:13.004Z,25.57
2023-05-25T01:09:45.876Z,16.70
2023-05-25T01:12:19.129Z,18.97
2023-05-25T01:14:49.478Z,16.17
2023-05-25T01:17:20.614Z,11.70
2023-05-25T01:20:01.637Z,9.03
2023-05-25T01:22:42.892Z,10.60
2023-05-25T01:25:15.263Z,12.07
2023-05-25T01:27:50.460Z,15.53
2023-05-25T01:30:20.755Z,8.03
2023-05-25T01:32:50.747Z,10.43
2023-05-25T01:35:20.726Z,8.23
2023-05-25T01:37:51.352Z,10.13
2023-05-25T01:40:19.685Z,8.50
2023-05-25T01:42:48.072Z,9.53
2023-05-25T01:45:17.803Z,6.70
2023-05-25T01:47:50.350Z,6.70
2023-05-25T01:50:24.939Z,6.57
2023-05-25T01:53:01.208Z,7.03
2023-05-25T01:55:32.144Z,4.23
2023-05-25T01:58:01.078Z,7.17
2023-05-25T02:00:32.056Z,7.23
2023-05-25T02:03:02.522Z,8.27
2023-05-25T02:05:31.136Z,6.17
2023-05-25T02:08:01.131Z,6.20
2023-05-25T02:10:31.541Z,5.93
2023-05-25T02:12:59.723Z,5.17
2023-05-25T02:15:33.715Z,8.13
2023-05-25T02:18:03.202Z,5.40
2023-05-25T02:20:31.767Z,6.40
2023-05-25T02:23:03.695Z,5.37
2023-05-25T02:25:32.319Z,9.33
2023-05-25T02:28:01.030Z,7.97
2023-05-25T02:30:29.660Z,6.13
2023-05-25T02:32:58.013Z,7.93
2023-05-25T02:35:26.271Z,6.07
2023-05-25T02:37:54.559Z,10.17
2023-05-25T02:40:24.347Z,5.00
2023-05-25T02:42:55.608Z,6.27
2023-05-25T02:45:23.842Z,7.03
2023-05-25T02:47:55.040Z,6.60
2023-05-25T02:50:23.543Z,5.20
2023-05-25T02:52:52.098Z,8.47
2023-05-25T02:55:22.803Z,4.83
2023-05-25T02:57:52.904Z,5.20
2023-05-25T03:00:22.186Z,6.17
2023-05-25T03:02:50.644Z,6.67
2023-05-25T03:05:19.821Z,3.60
2023-05-25T03:07:48.563Z,5.87
2023-05-25T03:10:16.951Z,4.67
2023-05-25T03:12:45.224Z,8.73
2023-05-25T03:15:14.945Z,4.80
2023-05-25T03:17:43.334Z,3.40
2023-05-25T03:20:13.495Z,6.17
2023-05-25T03:22:42.805Z,3.17
2023-05-25T03:25:13.522Z,6.17
2023-05-25T03:27:41.822Z,6.83
2023-05-25T03:30:10.756Z,5.50
2023-05-25T03:32:40.299Z,8.27
2023-05-25T03:35:09.141Z,5.90
2023-05-25T03:37:37.491Z,5.27
2023-05-25T03:40:07.291Z,5.37
2023-05-25T03:42:38.385Z,6.77
2023-05-25T03:45:09.273Z,5.97
2023-05-25T03:47:37.687Z,4.30
2023-05-25T03:50:08.696Z,4.20
2023-05-25T03:52:37.051Z,3.50
2023-05-25T03:55:05.981Z,7.10
2023-05-25T03:57:34.771Z,7.43
2023-05-25T04:00:03.304Z,5.83
2023-05-25T04:02:31.473Z,6.47
2023-05-25T04:05:00.096Z,6.23
2023-05-25T04:07:33.114Z,7.87
2023-05-25T04:10:01.318Z,7.30
2023-05-25T04:12:29.868Z,5.93
2023-05-25T04:14:58.266Z,7.70
2023-05-25T04:17:26.791Z,9.40
2023-05-25T04:19:55.280Z,9.07
2023-05-25T04:22:23.574Z,7.60
2023-05-25T04:24:53.127Z,6.40
2023-05-25T04:27:22.378Z,6.23
2023-05-25T04:29:51.380Z,8.10
2023-05-25T04:32:19.634Z,7.10
2023-05-25T04:34:48.434Z,6.43
2023-05-25T04:37:18.181Z,7.57
2023-05-25T04:39:46.857Z,5.30
2023-05-25T04:42:17.337Z,6.63
2023-05-25T04:44:45.570Z,5.03
2023-05-25T04:47:13.738Z,6.90
2023-05-25T04:49:42.198Z,8.37
2023-05-25T04:52:10.644Z,9.23
2023-05-25T04:54:39.352Z,5.53
2023-05-25T04:57:07.834Z,6.57
2023-05-25T04:59:37.647Z,10.00
2023-05-25T05:02:06.612Z,8.17
2023-05-25T05:04:35.097Z,8.60
2023-05-25T05:07:03.557Z,8.30
2023-05-25T05:09:31.927Z,7.87
2023-05-25T05:12:00.377Z,8.90
2023-05-25T05:14:29.049Z,9.97
2023-05-25T05:16:59.090Z,11.80
2023-05-25T05:19:27.517Z,8.80
2023-05-25T05:21:55.705Z,7.33
2023-05-25T05:24:23.855Z,10.23
2023-05-25T05:26:58.263Z,8.73
2023-05-25T05:29:28.861Z,8.70
2023-05-25T05:31:58.961Z,8.17
2023-05-25T05:34:27.808Z,8.97
2023-05-25T05:36:58.423Z,9.53
2023-05-25T05:39:28.093Z,7.50
2023-05-25T05:41:56.902Z,6.20
2023-05-25T05:44:28.081Z,11.63
2023-05-25T05:47:01.837Z,9.47
2023-05-25T05:49:34.512Z,11.43
2023-05-25T05:52:05.195Z,10.27
2023-05-25T05:54:35.168Z,8.17
2023-05-25T05:57:06.678Z,9.03
2023-05-25T05:59:35.745Z,10.80
2023-05-25T06:02:05.602Z,13.73
2023-05-25T06:04:34.403Z,11.03
2023-05-25T06:07:02.798Z,8.37
2023-05-25T06:09:31.067Z,8.20
2023-05-25T06:12:01.379Z,9.60
2023-05-25T06:14:29.699Z,8.87
2023-05-25T06:16:58.118Z,11.33
2023-05-25T06:19:28.120Z,9.00
2023-05-25T06:21:56.510Z,7.43
2023-05-25T06:24:24.682Z,9.97
2023-05-25T06:26:54.969Z,11.40
2023-05-25T06:29:23.290Z,8.10
2023-05-25T06:31:51.532Z,10.60
2023-05-25T06:34:19.786Z,9.23
2023-05-25T06:36:49.375Z,14.63
2023-05-25T06:39:17.744Z,10.83
2023-05-25T06:41:46.646Z,11.27
2023-05-25T06:44:14.988Z,7.97
2023-05-25T06:46:43.369Z,10.07
2023-05-25T06:49:11.655Z,7.43
2023-05-25T06:51:40.021Z,10.40
2023-05-25T06:54:09.756Z,6.27
2023-05-25T06:56:38.021Z,7.20
2023-05-25T06:59:08.642Z,12.70
2023-05-25T07:01:37.652Z,5.80
2023-05-25T07:04:05.965Z,7.37
2023-05-25T07:06:34.318Z,8.37
2023-05-25T07:09:02.580Z,6.97
2023-05-25T07:11:34.149Z,6.30
2023-05-25T07:14:02.465Z,6.00
2023-05-25T07:16:32.164Z,9.17
2023-05-25T07:19:00.756Z,8.63
2023-05-25T07:21:33.898Z,8.23
2023-05-25T07:24:02.570Z,10.47
2023-05-25T07:26:34.058Z,17.87
2023-05-25T07:29:02.569Z,7.10
2023-05-25T07:31:31.068Z,9.77
2023-05-25T07:33:59.642Z,9.37
2023-05-25T07:36:27.803Z,5.53
2023-05-25T07:38:56.142Z,8.37
2023-05-25T07:41:24.286Z,8.53
2023-05-25T07:43:53.965Z,5.10
2023-05-25T07:46:25.431Z,5.00
2023-05-25T07:48:54.785Z,9.57
2023-05-25T07:51:26.627Z,7.70
2023-05-25T07:53:55.446Z,5.57
2023-05-25T07:56:23.669Z,5.50
2023-05-25T07:58:53.725Z,8.80
2023-05-25T08:01:24.910Z,7.07
2023-05-25T08:03:54.766Z,7.83
2023-05-25T08:06:23.440Z,9.00
2023-05-25T08:08:52.051Z,9.10
2023-05-25T08:11:24.990Z,6.23
2023-05-25T08:13:54.868Z,4.57
2023-05-25T08:16:23.203Z,5.40
2023-05-25T08:18:51.854Z,4.80
2023-05-25T08:21:20.169Z,3.27
2023-05-25T08:23:50.707Z,4.03
2023-05-25T08:26:38.043Z,5.57
2023-05-25T08:29:08.871Z,6.27
2023-05-25T08:31:37.611Z,7.20
2023-05-25T08:34:05.852Z,8.43
2023-05-25T08:36:35.986Z,6.57
2023-05-25T08:39:05.413Z,6.23
2023-05-25T08:41:36.106Z,4.57
2023-05-25T08:44:08.160Z,7.30
2023-05-25T08:46:38.422Z,7.63
2023-05-25T08:49:10.567Z,9.60
2023-05-25T08:51:39.887Z,2.83
2023-05-25T08:54:10.607Z,7.80
2023-05-25T08:56:47.105Z,2.97
2023-05-25T08:59:27.715Z,8.43
2023-05-25T09:02:06.705Z,3.70
2023-05-25T09:04:35.880Z,4.83
2023-05-25T09:07:10.408Z,8.27
2023-05-25T09:09:39.997Z,6.37
2023-05-25T09:12:09.696Z,7.13
2023-05-25T09:14:39.938Z,4.37
2023-05-25T09:17:09.682Z,5.97
2023-05-25T09:19:37.907Z,3.63
2023-05-25T09:22:14.771Z,8.97
2023-05-25T09:24:45.772Z,9.00
2023-05-25T09:27:15.417Z,3.47
2023-05-25T09:29:43.565Z,10.57
2023-05-25T09:32:13.496Z,6.27
2023-05-25T09:34:42.491Z,5.97
2023-05-25T09:37:13.705Z,4.90
2023-05-25T09:39:43.321Z,9.57
2023-05-25T09:42:12.112Z,6.93
2023-05-25T09:44:40.713Z,9.37
2023-05-25T09:47:09.489Z,10.70
2023-05-25T09:49:39.154Z,7.30
2023-05-25T09:52:10.424Z,9.03
2023-05-25T09:54:39.311Z,7.40
2023-05-25T09:57:10.898Z,6.30
2023-05-25T09:59:39.375Z,6.20
2023-05-25T10:02:07.876Z,12.67
2023-05-25T10:04:36.306Z,9.03
2023-05-25T10:07:06.763Z,11.73
2023-05-25T10:09:40.216Z,10.10
2023-05-25T10:12:11.879Z,9.13
2023-05-25T10:14:40.475Z,12.63
2023-05-25T10:17:13.021Z,9.40
2023-05-25T10:19:47.946Z,7.93
2023-05-25T10:22:22.246Z,11.37
2023-05-25T10:24:56.533Z,11.03
2023-05-25T10:27:27.997Z,10.77
2023-05-25T10:29:58.103Z,11.77
2023-05-25T10:32:27.521Z,6.00
2023-05-25T10:34:58.467Z,9.83
2023-05-25T10:37:29.799Z,13.37
2023-05-25T10:39:59.860Z,9.57
2023-05-25T10:42:29.905Z,7.33
2023-05-25T10:45:01.274Z,6.50
2023-05-25T10:47:31.648Z,11.17
2023-05-25T10:50:04.605Z,9.27
2023-05-25T10:52:34.585Z,8.53
2023-05-25T10:55:05.053Z,6.37
2023-05-25T10:57:33.507Z,11.37
2023-05-25T11:00:10.744Z,15.33
2023-05-25T11:02:56.166Z,9.73
2023-05-25T11:05:35.927Z,8.37
2023-05-25T11:08:08.556Z,10.97
2023-05-25T11:10:54.256Z,8.33
2023-05-25T11:13:40.411Z,8.33
2023-05-25T11:16:18.447Z,6.30
2023-05-25T11:18:52.913Z,5.70
2023-05-25T11:21:45.626Z,9.67
2023-05-25T11:24:17.521Z,7.50
2023-05-25T11:27:01.330Z,7.10
2023-05-25T11:29:36.396Z,5.90
2023-05-25T11:32:05.879Z,8.57
2023-05-25T11:34:34.648Z,5.63
2023-05-25T11:37:03.956Z,7.77
2023-05-25T11:39:34.431Z,10.37
2023-05-25T11:42:07.478Z,10.60
2023-05-25T11:44:38.150Z,10.07
2023-05-25T11:47:10.306Z,6.13
2023-05-25T11:49:42.627Z,5.13
2023-05-25T11:52:11.618Z,8.43
2023-05-25T11:54:42.373Z,4.80
2023-05-25T11:57:18.778Z,9.20
2023-05-25T11:59:51.171Z,7.70
2023-05-25T12:02:20.399Z,5.40
2023-05-25T12:04:56.335Z,10.33
2023-05-25T12:07:25.422Z,13.67
2023-05-25T12:10:06.234Z,8.07
2023-05-25T12:12:41.369Z,9.63
2023-05-25T12:15:12.007Z,4.67
2023-05-25T12:17:43.313Z,8.40
2023-05-25T12:20:12.661Z,8.03
2023-05-25T12:22:41.555Z,10.20
2023-05-25T12:25:13.314Z,11.03
2023-05-25T12:27:42.666Z,11.07
2023-05-25T12:30:11.883Z,10.23
2023-05-25T12:33:04.516Z,10.27
2023-05-25T12:35:47.432Z,9.27
2023-05-25T12:38:17.990Z,9.13
2023-05-25T12:40:50.421Z,6.13
2023-05-25T12:43:18.971Z,11.40
2023-05-25T12:45:47.723Z,6.53
2023-05-25T12:48:16.656Z,4.50
2023-05-25T12:51:03.212Z,7.77
2023-05-25T12:53:31.533Z,7.20
2023-05-25T12:56:05.832Z,9.20
2023-05-25T12:58:34.040Z,8.03
2023-05-25T13:01:09.849Z,13.97
2023-05-25T13:03:41.529Z,7.00
2023-05-25T13:06:10.113Z,5.17
2023-05-25T13:08:39.390Z,9.13
2023-05-25T13:11:09.090Z,14.07
2023-05-25T13:13:37.712Z,5.70
2023-05-25T13:16:06.286Z,9.93
2023-05-25T13:18:34.654Z,11.67
2023-05-25T13:21:03.229Z,8.73
2023-05-25T13:23:32.301Z,11.10
2023-05-25T13:26:02.630Z,8.30
2023-05-25T13:28:32.787Z,9.90
2023-05-25T13:31:02.040Z,5.60
2023-05-25T13:33:30.810Z,8.73
2023-05-25T13:36:08.363Z,5.07
2023-05-25T13:38:38.225Z,4.63
2023-05-25T13:41:06.652Z,8.93
2023-05-25T13:43:36.301Z,7.27
2023-05-25T13:46:05.801Z,9.03
2023-05-25T13:48:34.096Z,9.57
2023-05-25T13:51:05.651Z,8.43
2023-05-25T13:53:35.581Z,6.10
2023-05-25T13:56:03.869Z,10.50
2023-05-25T13:58:36.736Z,8.37
2023-05-25T14:01:04.980Z,10.53
2023-05-25T14:03:36.191Z,9.33
2023-05-25T14:06:04.945Z,8.63
2023-05-25T14:08:35.743Z,7.40
2023-05-25T14:11:05.005Z,8.93
2023-05-25T14:13:36.315Z,9.53
2023-05-25T14:16:06.610Z,7.33
2023-05-25T14:18:35.613Z,6.43
2023-05-25T14:21:04.214Z,8.13
2023-05-25T14:23:33.376Z,7.47
2023-05-25T14:26:04.471Z,11.07
2023-05-25T14:28:33.061Z,7.27
2023-05-25T14:31:01.374Z,3.93
2023-05-25T14:33:31.163Z,7.73
2023-05-25T14:35:59.643Z,11.07
2023-05-25T14:38:28.193Z,7.97
2023-05-25T14:40:56.590Z,9.77
2023-05-25T14:43:26.038Z,7.87
2023-05-25T14:45:55.802Z,12.67
2023-05-25T14:48:26.028Z,6.40
2023-05-25T14:51:00.566Z,7.90
2023-05-25T14:53:28.763Z,8.60
2023-05-25T14:55:57.043Z,6.23
2023-05-25T14:58:26.361Z,8.83
2023-05-25T15:00:54.800Z,7.07
2023-05-25T15:03:23.136Z,6.93
2023-05-25T15:05:51.805Z,6.33
2023-05-25T15:08:21.770Z,6.63
2023-05-25T15:10:50.019Z,7.73
2023-05-25T15:13:18.923Z,7.17
2023-05-25T15:15:47.287Z,11.17
2023-05-25T15:18:16.135Z,7.67
2023-05-25T15:20:47.439Z,8.93
2023-05-25T15:23:18.202Z,7.23
2023-05-25T15:25:48.517Z,6.93
2023-05-25T15:28:17.348Z,10.90
2023-05-25T15:30:45.771Z,14.73
2023-05-25T15:33:17.963Z,13.03
2023-05-25T15:35:47.230Z,9.13
2023-05-25T15:38:18.301Z,9.73
2023-05-25T15:40:48.329Z,8.23
2023-05-25T15:43:16.816Z,6.77
2023-05-25T15:45:45.280Z,8.47
2023-05-25T15:48:13.870Z,8.10
2023-05-25T15:50:42.166Z,15.17
2023-05-25T15:53:10.950Z,9.07
2023-05-25T15:55:39.625Z,7.23
2023-05-25T15:58:12.388Z,11.00
2023-05-25T16:00:40.862Z,12.03
2023-05-25T16:03:09.694Z,17.10
2023-05-25T16:05:40.825Z,17.80
2023-05-25T16:08:09.104Z,12.77
2023-05-25T16:10:37.775Z,10.33
2023-05-25T16:13:05.861Z,12.20
2023-05-25T16:15:41.682Z,13.77
2023-05-25T16:18:10.439Z,11.03
2023-05-25T16:20:38.981Z,12.20
2023-05-25T16:23:07.540Z,12.47
2023-05-25T16:25:36.566Z,11.87
2023-05-25T16:28:04.976Z,15.20
2023-05-25T16:30:36.103Z,15.67
2023-05-25T16:33:05.834Z,18.80
2023-05-25T16:35:34.192Z,18.40
2023-05-25T16:38:03.806Z,19.00
2023-05-25T16:40:35.156Z,16.03
2023-05-25T16:43:03.337Z,20.87
2023-05-25T16:45:31.946Z,17.67
2023-05-25T16:48:03.454Z,20.03
2023-05-25T16:50:33.460Z,21.13
2023-05-25T16:53:10.207Z,16.77
2023-05-25T16:55:38.935Z,20.30
2023-05-25T16:58:07.206Z,20.33
2023-05-25T17:00:35.682Z,20.03
2023-05-25T17:03:06.817Z,15.13
2023-05-25T17:05:39.849Z,17.80
2023-05-25T17:08:09.041Z,17.07
2023-05-25T17:10:37.269Z,17.93
2023-05-25T17:13:05.581Z,17.97
2023-05-25T17:15:36.774Z,17.73
2023-05-25T17:18:05.145Z,19.67
2023-05-25T17:20:33.486Z,16.50
2023-05-25T17:23:03.762Z,20.60
2023-05-25T17:25:35.954Z,20.07
2023-05-25T17:28:07.416Z,21.00
2023-05-25T17:30:36.508Z,21.17
2023-05-25T17:33:07.793Z,19.80
2023-05-25T17:35:36.223Z,19.47
2023-05-25T17:38:06.031Z,17.30
2023-05-25T17:40:34.995Z,24.60
2023-05-25T17:43:03.443Z,21.20
2023-05-25T17:45:36.982Z,22.00
2023-05-25T17:48:08.339Z,17.67
2023-05-25T17:50:39.774Z,22.27
2023-05-25T17:53:09.755Z,19.50
2023-05-25T17:55:37.900Z,20.47
2023-05-25T17:58:06.465Z,22.37
2023-05-25T18:00:38.025Z,24.30
2023-05-25T18:03:09.118Z,18.43
2023-05-25T18:05:41.235Z,21.33
2023-05-25T18:08:11.237Z,18.93
2023-05-25T18:10:39.746Z,22.80
2023-05-25T18:13:11.602Z,22.43
2023-05-25T18:15:40.057Z,26.23
2023-05-25T18:18:08.691Z,20.80
2023-05-25T18:20:37.061Z,22.37
2023-05-25T18:23:08.321Z,20.10
2023-05-25T18:25:39.242Z,22.20
2023-05-25T18:28:08.679Z,22.90
2023-05-25T18:30:38.084Z,27.37
2023-05-25T18:33:08.599Z,22.70
2023-05-25T18:35:37.217Z,26.63
2023-05-25T18:38:05.367Z,22.13
2023-05-25T18:40:35.762Z,29.17
2023-05-25T18:43:05.934Z,25.17
2023-05-25T18:45:34.139Z,28.60
2023-05-25T18:48:07.678Z,15.23
2023-05-25T18:50:36.114Z,30.43
2023-05-25T18:53:07.678Z,32.53
2023-05-25T18:55:36.295Z,20.47
2023-05-25T18:58:06.593Z,25.53
2023-05-25T19:00:37.934Z,25.27
2023-05-25T19:03:07.027Z,29.90
2023-05-25T19:05:35.681Z,32.93
2023-05-25T19:08:04.056Z,30.60
2023-05-25T19:10:32.727Z,28.07
2023-05-25T19:13:01.371Z,28.97
2023-05-25T19:15:31.540Z,26.50
2023-05-25T19:17:59.804Z,29.53
2023-05-25T19:20:28.865Z,30.27
2023-05-25T19:22:57.430Z,28.43
2023-05-25T19:25:28.409Z,25.30
2023-05-25T19:27:59.071Z,27.73
2023-05-25T19:30:27.636Z,31.07
2023-05-25T19:32:57.416Z,25.80
2023-05-25T19:35:26.010Z,26.27
2023-05-25T19:37:54.344Z,29.43
2023-05-25T19:40:24.025Z,28.20
2023-05-25T19:42:52.909Z,22.83
2023-05-25T19:45:23.493Z,31.67
2023-05-25T19:47:52.346Z,32.10
2023-05-25T19:50:22.534Z,30.93
2023-05-25T19:52:50.814Z,26.03
2023-05-25T19:55:18.974Z,23.57
2023-05-25T19:57:47.333Z,29.53
2023-05-25T20:00:25.544Z,23.77
2023-05-25T20:02:55.089Z,31.90
2023-05-25T20:05:25.123Z,30.73
2023-05-25T20:07:53.778Z,28.87
2023-05-25T20:10:22.549Z,28.93
2023-05-25T20:12:53.941Z,31.70
2023-05-25T20:15:22.189Z,31.87
2023-05-25T20:17:51.135Z,24.67
2023-05-25T20:20:22.526Z,29.47
2023-05-25T20:22:52.414Z,29.13
2023-05-25T20:25:20.589Z,29.37
2023-05-25T20:27:48.918Z,35.13
2023-05-25T20:30:18.300Z,30.40
2023-05-25T20:32:47.027Z,20.53
2023-05-25T20:35:18.417Z,22.67
2023-05-25T20:37:46.699Z,28.63
2023-05-25T20:40:16.286Z,20.73
2023-05-25T20:42:47.105Z,22.00
2023-05-25T20:45:15.278Z,29.83
2023-05-25T20:47:43.786Z,18.00
2023-05-25T20:50:12.180Z,19.83
2023-05-25T20:52:40.353Z,17.50
2023-05-25T20:55:09.170Z,19.80
2023-05-25T20:57:39.146Z,17.53
2023-05-25T21:00:08.619Z,13.77
2023-05-25T21:02:37.247Z,24.40
2023-05-25T21:05:08.506Z,19.50
2023-05-25T21:07:39.570Z,13.23
2023-05-25T21:10:11.379Z,20.97
2023-05-25T21:12:41.198Z,14.10
2023-05-25T21:15:10.276Z,19.57
2023-05-25T21:17:38.701Z,15.73
2023-05-25T21:20:08.151Z,13.73
2023-05-25T21:22:39.336Z,15.20
2023-05-25T21:25:08.837Z,13.50
2023-05-25T21:27:37.313Z,14.77
2023-05-25T21:30:08.245Z,12.17
2023-05-25T21:32:36.688Z,9.77
2023-05-25T21:35:05.166Z,10.57
2023-05-25T21:37:33.576Z,11.33
2023-05-25T21:40:04.606Z,8.83
2023-05-25T21:42:32.674Z,14.07
2023-05-25T21:45:01.045Z,10.03
2023-05-25T21:47:33.018Z,16.90
2023-05-25T21:50:01.152Z,17.80
2023-05-25T21:52:31.538Z,12.57
2023-05-25T21:55:00.756Z,13.50
2023-05-25T21:57:31.570Z,17.43
2023-05-25T21:59:59.854Z,14.90
2023-05-25T22:02:30.658Z,13.47
2023-05-25T22:05:02.326Z,11.87
2023-05-25T22:07:32.295Z,16.77
2023-05-25T22:10:00.804Z,21.53
2023-05-25T22:12:29.006Z,17.70
2023-05-25T22:14:57.518Z,13.23
2023-05-25T22:17:25.897Z,14.63
2023-05-25T22:20:06.562Z,16.20
2023-05-25T22:22:38.132Z,12.80
2023-05-25T22:25:07.283Z,14.07
2023-05-25T22:27:35.501Z,13.30
2023-05-25T22:30:03.852Z,20.57
2023-05-25T22:32:32.912Z,21.20
2023-05-25T22:35:01.521Z,25.27
2023-05-25T22:37:32.421Z,15.67
2023-05-25T22:40:02.398Z,12.53
2023-05-25T22:42:33.223Z,16.20
2023-05-25T22:45:04.601Z,13.67
2023-05-25T22:47:35.895Z,14.10
2023-05-25T22:50:04.060Z,14.60
2023-05-25T22:52:35.451Z,18.40
2023-05-25T22:55:05.228Z,14.00
2023-05-25T22:57:33.960Z,17.53
2023-05-25T23:00:05.565Z,19.93
2023-05-25T23:02:35.600Z,18.77
2023-05-25T23:05:06.925Z,16.10
2023-05-25T23:07:35.332Z,16.93
2023-05-25T23:10:05.647Z,17.40
2023-05-25T23:12:34.032Z,15.23
2023-05-25T23:15:09.680Z,17.10
2023-05-25T23:17:38.339Z,17.97
2023-05-25T23:20:07.875Z,19.47
2023-05-25T23:22:36.084Z,19.93
2023-05-25T23:25:09.070Z,15.43
2023-05-25T23:27:37.150Z,13.93
2023-05-25T23:30:09.061Z,19.40
2023-05-25T23:32:37.514Z,18.73
2023-05-25T23:35:09.502Z,15.93
2023-05-25T23:37:38.119Z,14.60
2023-05-25T23:40:08.800Z,14.17
2023-05-25T23:42:41.716Z,16.77
2023-05-25T23:45:10.769Z,14.87
2023-05-25T23:47:38.874Z,16.27
2023-05-25T23:50:08.186Z,8.60
2023-05-25T23:52:36.550Z,17.07
2023-05-25T23:55:06.451Z,17.37
2023-05-25T23:57:36.762Z,18.43
